sensor_id;sensor_type;location;lat;lon;timestamp;temperature;humidity
7572;DHT22;3827;49.928;8.548;2024-03-23T00:52:47;7.90;99.90
7572;DHT22;3827;49.928;8.548;2024-03-23T00:55:12;7.90;99.90
7572;DHT22;3827;49.928;8.548;2024-03-23T00:57:38;8.00;99.90
7572;DHT22;3827;49.928;8.548;2024-03-23T01:00:04;8.00;99.90
7572;DHT22;3827;49.928;8.548;2024-03-23T01:02:32;8.10;99.90
7572;DHT22;3827;49.928;8.548;2024-03-23T01:04:57;8.10;99.90
7572;DHT22;3827;49.928;8.548;2024-03-23T01:07:23;7.90;99.90
7572;DHT22;3827;49.928;8.548;2024-03-23T01:09:48;7.70;99.90
7572;DHT22;3827;49.928;8.548;2024-03-23T01:12:14;7.60;99.90
7572;DHT22;3827;49.928;8.548;2024-03-23T01:14:39;7.60;99.90
7572;DHT22;3827;49.928;8.548;2024-03-23T01:17:05;7.50;99.90
7572;DHT22;3827;49.928;8.548;2024-03-23T01:19:30;7.60;99.90
7572;DHT22;3827;49.928;8.548;2024-03-23T01:21:56;7.60;99.90
7572;DHT22;3827;49.928;8.548;2024-03-23T01:24:21;7.70;99.90
7572;DHT22;3827;49.928;8.548;2024-03-23T01:26:47;7.70;99.90
7572;DHT22;3827;49.928;8.548;2024-03-23T01:29:12;7.60;99.90
7572;DHT22;3827;49.928;8.548;2024-03-23T01:31:38;7.60;99.90
7572;DHT22;3827;49.928;8.548;2024-03-23T01:34:04;7.80;99.90
7572;DHT22;3827;49.928;8.548;2024-03-23T01:36:29;7.80;99.90
7572;DHT22;3827;49.928;8.548;2024-03-23T01:38:55;7.90;99.90
7572;DHT22;3827;49.928;8.548;2024-03-23T01:41:20;7.80;99.90
7572;DHT22;3827;49.928;8.548;2024-03-23T01:43:46;7.90;99.90
7572;DHT22;3827;49.928;8.548;2024-03-23T01:46:13;7.90;99.90
7572;DHT22;3827;49.928;8.548;2024-03-23T01:48:38;8.00;99.90
7572;DHT22;3827;49.928;8.548;2024-03-23T01:51:04;7.90;99.90
7572;DHT22;3827;49.928;8.548;2024-03-23T01:53:30;8.00;99.90
7572;DHT22;3827;49.928;8.548;2024-03-23T01:55:56;7.90;99.90
7572;DHT22;3827;49.928;8.548;2024-03-23T01:58:22;7.90;99.90
7572;DHT22;3827;49.928;8.548;2024-03-23T02:00:48;7.90;99.90
7572;DHT22;3827;49.928;8.548;2024-03-23T02:03:33;7.90;99.90
7572;DHT22;3827;49.928;8.548;2024-03-23T02:05:59;7.80;99.90
7572;DHT22;3827;49.928;8.548;2024-03-23T02:08:25;7.90;99.90
7572;DHT22;3827;49.928;8.548;2024-03-23T02:10:51;7.80;99.90
7572;DHT22;3827;49.928;8.548;2024-03-23T02:13:18;7.80;99.90
7572;DHT22;3827;49.928;8.548;2024-03-23T02:15:44;7.80;99.90
7572;DHT22;3827;49.928;8.548;2024-03-23T02:18:10;7.80;99.90
7572;DHT22;3827;49.928;8.548;2024-03-23T02:20:36;7.80;99.90
7572;DHT22;3827;49.928;8.548;2024-03-23T02:23:03;7.80;99.90
7572;DHT22;3827;49.928;8.548;2024-03-23T02:25:31;7.70;99.90
7572;DHT22;3827;49.928;8.548;2024-03-23T02:27:57;7.70;99.90
7572;DHT22;3827;49.928;8.548;2024-03-23T02:30:24;7.80;99.90
7572;DHT22;3827;49.928;8.548;2024-03-23T02:32:50;7.70;99.90
7572;DHT22;3827;49.928;8.548;2024-03-23T02:35:16;7.70;99.90
7572;DHT22;3827;49.928;8.548;2024-03-23T02:37:41;7.70;99.90
7572;DHT22;3827;49.928;8.548;2024-03-23T02:40:07;7.70;99.90
7572;DHT22;3827;49.928;8.548;2024-03-23T02:42:33;7.70;99.90
7572;DHT22;3827;49.928;8.548;2024-03-23T02:44:59;7.70;99.90
7572;DHT22;3827;49.928;8.548;2024-03-23T02:47:25;7.80;99.90
7572;DHT22;3827;49.928;8.548;2024-03-23T02:49:50;7.80;99.90
7572;DHT22;3827;49.928;8.548;2024-03-23T02:52:16;7.80;99.90
7572;DHT22;3827;49.928;8.548;2024-03-23T02:54:41;7.80;99.90
7572;DHT22;3827;49.928;8.548;2024-03-23T02:57:10;7.80;99.90
7572;DHT22;3827;49.928;8.548;2024-03-23T02:59:35;7.80;99.90
7572;DHT22;3827;49.928;8.548;2024-03-23T03:02:01;7.80;99.90
7572;DHT22;3827;49.928;8.548;2024-03-23T03:04:27;7.80;99.90
7572;DHT22;3827;49.928;8.548;2024-03-23T03:06:52;7.90;99.90
7572;DHT22;3827;49.928;8.548;2024-03-23T03:09:18;7.90;99.90
7572;DHT22;3827;49.928;8.548;2024-03-23T03:11:43;7.90;99.90
7572;DHT22;3827;49.928;8.548;2024-03-23T03:14:09;7.90;99.90
7572;DHT22;3827;49.928;8.548;2024-03-23T03:16:34;7.90;99.90
7572;DHT22;3827;49.928;8.548;2024-03-23T03:19:00;7.80;99.90
7572;DHT22;3827;49.928;8.548;2024-03-23T03:21:26;7.70;99.90
7572;DHT22;3827;49.928;8.548;2024-03-23T03:23:52;7.70;99.90
7572;DHT22;3827;49.928;8.548;2024-03-23T03:26:18;7.70;99.90
7572;DHT22;3827;49.928;8.548;2024-03-23T03:28:43;7.70;99.90
7572;DHT22;3827;49.928;8.548;2024-03-23T03:31:14;7.80;99.90
7572;DHT22;3827;49.928;8.548;2024-03-23T03:33:40;7.90;99.90
7572;DHT22;3827;49.928;8.548;2024-03-23T03:36:06;7.90;99.90
7572;DHT22;3827;49.928;8.548;2024-03-23T03:38:31;7.90;99.90
7572;DHT22;3827;49.928;8.548;2024-03-23T03:40:57;7.90;99.90
7572;DHT22;3827;49.928;8.548;2024-03-23T03:43:24;7.90;99.90
7572;DHT22;3827;49.928;8.548;2024-03-23T03:45:56;7.80;99.90
7572;DHT22;3827;49.928;8.548;2024-03-23T03:48:22;7.90;99.90
7572;DHT22;3827;49.928;8.548;2024-03-23T03:50:48;8.00;99.90
7572;DHT22;3827;49.928;8.548;2024-03-23T03:53:14;7.90;99.90
7572;DHT22;3827;49.928;8.548;2024-03-23T03:55:40;7.90;99.90
7572;DHT22;3827;49.928;8.548;2024-03-23T03:58:06;8.00;99.90
7572;DHT22;3827;49.928;8.548;2024-03-23T04:00:31;8.10;99.90
7572;DHT22;3827;49.928;8.548;2024-03-23T04:02:57;8.20;99.90
7572;DHT22;3827;49.928;8.548;2024-03-23T04:05:23;8.30;99.90
7572;DHT22;3827;49.928;8.548;2024-03-23T04:07:48;8.40;99.90
7572;DHT22;3827;49.928;8.548;2024-03-23T04:10:14;8.60;99.90
7572;DHT22;3827;49.928;8.548;2024-03-23T04:12:41;8.70;99.90
7572;DHT22;3827;49.928;8.548;2024-03-23T04:15:07;8.80;99.90
7572;DHT22;3827;49.928;8.548;2024-03-23T04:17:33;8.90;99.90
7572;DHT22;3827;49.928;8.548;2024-03-23T04:20:00;8.80;99.90
7572;DHT22;3827;49.928;8.548;2024-03-23T04:22:26;8.60;99.90
7572;DHT22;3827;49.928;8.548;2024-03-23T04:24:56;8.60;99.90
7572;DHT22;3827;49.928;8.548;2024-03-23T04:27:25;8.50;99.90
7572;DHT22;3827;49.928;8.548;2024-03-23T04:29:51;8.40;99.90
7572;DHT22;3827;49.928;8.548;2024-03-23T04:32:18;8.30;99.90
7572;DHT22;3827;49.928;8.548;2024-03-23T04:34:44;8.10;99.90
7572;DHT22;3827;49.928;8.548;2024-03-23T04:37:11;7.80;99.90
7572;DHT22;3827;49.928;8.548;2024-03-23T04:39:36;7.70;99.90
7572;DHT22;3827;49.928;8.548;2024-03-23T04:42:03;7.70;99.90
7572;DHT22;3827;49.928;8.548;2024-03-23T04:44:29;7.50;99.90
7572;DHT22;3827;49.928;8.548;2024-03-23T04:46:54;7.50;99.90
7572;DHT22;3827;49.928;8.548;2024-03-23T04:49:20;7.40;99.90
7572;DHT22;3827;49.928;8.548;2024-03-23T04:51:46;7.40;99.90
7572;DHT22;3827;49.928;8.548;2024-03-23T04:54:14;7.20;99.90
7572;DHT22;3827;49.928;8.548;2024-03-23T04:56:40;7.10;99.90
7572;DHT22;3827;49.928;8.548;2024-03-23T04:59:06;7.00;99.90
7572;DHT22;3827;49.928;8.548;2024-03-23T05:01:32;6.90;99.90
7572;DHT22;3827;49.928;8.548;2024-03-23T05:03:58;6.90;99.90
7572;DHT22;3827;49.928;8.548;2024-03-23T05:06:24;6.90;99.90
7572;DHT22;3827;49.928;8.548;2024-03-23T05:08:53;6.90;99.90
7572;DHT22;3827;49.928;8.548;2024-03-23T05:11:18;6.80;99.90
7572;DHT22;3827;49.928;8.548;2024-03-23T05:13:44;6.80;99.90
7572;DHT22;3827;49.928;8.548;2024-03-23T05:16:09;6.80;99.90
7572;DHT22;3827;49.928;8.548;2024-03-23T05:18:35;6.90;99.90
7572;DHT22;3827;49.928;8.548;2024-03-23T05:21:01;6.90;99.90
7572;DHT22;3827;49.928;8.548;2024-03-23T05:23:28;7.50;99.90
7572;DHT22;3827;49.928;8.548;2024-03-23T05:25:54;6.90;99.90
7572;DHT22;3827;49.928;8.548;2024-03-23T05:28:20;6.90;99.90
7572;DHT22;3827;49.928;8.548;2024-03-23T05:30:53;7.00;99.90
7572;DHT22;3827;49.928;8.548;2024-03-23T05:33:19;6.90;99.90
7572;DHT22;3827;49.928;8.548;2024-03-23T05:35:45;7.00;99.90
7572;DHT22;3827;49.928;8.548;2024-03-23T05:38:11;7.00;99.90
7572;DHT22;3827;49.928;8.548;2024-03-23T05:40:36;7.00;99.90
7572;DHT22;3827;49.928;8.548;2024-03-23T05:43:08;7.00;99.90
7572;DHT22;3827;49.928;8.548;2024-03-23T05:45:34;7.00;99.90
7572;DHT22;3827;49.928;8.548;2024-03-23T05:48:00;7.00;99.90
7572;DHT22;3827;49.928;8.548;2024-03-23T05:50:25;7.00;99.90
7572;DHT22;3827;49.928;8.548;2024-03-23T05:52:51;7.00;99.90
7572;DHT22;3827;49.928;8.548;2024-03-23T05:55:17;7.00;99.90
7572;DHT22;3827;49.928;8.548;2024-03-23T05:57:42;7.00;99.90
7572;DHT22;3827;49.928;8.548;2024-03-23T06:00:08;7.00;99.90
7572;DHT22;3827;49.928;8.548;2024-03-23T06:02:42;7.10;99.90
7572;DHT22;3827;49.928;8.548;2024-03-23T06:05:11;7.00;99.90
7572;DHT22;3827;49.928;8.548;2024-03-23T06:07:37;7.00;99.90
7572;DHT22;3827;49.928;8.548;2024-03-23T06:10:04;7.00;99.90
7572;DHT22;3827;49.928;8.548;2024-03-23T06:12:29;7.00;99.90
7572;DHT22;3827;49.928;8.548;2024-03-23T06:14:55;7.00;99.90
7572;DHT22;3827;49.928;8.548;2024-03-23T06:17:20;7.00;99.90
7572;DHT22;3827;49.928;8.548;2024-03-23T06:19:46;7.00;99.90
7572;DHT22;3827;49.928;8.548;2024-03-23T06:22:11;7.10;99.90
7572;DHT22;3827;49.928;8.548;2024-03-23T06:24:37;7.10;99.90
7572;DHT22;3827;49.928;8.548;2024-03-23T06:27:03;7.10;99.90
7572;DHT22;3827;49.928;8.548;2024-03-23T06:29:28;7.60;99.90
7572;DHT22;3827;49.928;8.548;2024-03-23T06:31:54;7.00;99.90
7572;DHT22;3827;49.928;8.548;2024-03-23T06:34:20;7.00;99.90
7572;DHT22;3827;49.928;8.548;2024-03-23T06:36:47;7.00;99.90
7572;DHT22;3827;49.928;8.548;2024-03-23T06:39:12;6.90;99.90
7572;DHT22;3827;49.928;8.548;2024-03-23T06:41:51;7.00;99.90
7572;DHT22;3827;49.928;8.548;2024-03-23T06:44:16;6.90;99.90
7572;DHT22;3827;49.928;8.548;2024-03-23T06:46:42;6.90;99.90
7572;DHT22;3827;49.928;8.548;2024-03-23T06:49:08;6.90;99.90
7572;DHT22;3827;49.928;8.548;2024-03-23T06:51:33;7.00;99.90
7572;DHT22;3827;49.928;8.548;2024-03-23T06:53:59;7.00;99.90
7572;DHT22;3827;49.928;8.548;2024-03-23T06:56:25;6.90;99.90
7572;DHT22;3827;49.928;8.548;2024-03-23T06:58:50;6.90;99.90
7572;DHT22;3827;49.928;8.548;2024-03-23T07:01:16;7.00;99.90
7572;DHT22;3827;49.928;8.548;2024-03-23T07:03:41;6.90;99.90
7572;DHT22;3827;49.928;8.548;2024-03-23T07:06:09;6.90;99.90
7572;DHT22;3827;49.928;8.548;2024-03-23T07:08:35;6.90;99.90
7572;DHT22;3827;49.928;8.548;2024-03-23T07:11:01;7.00;99.90
7572;DHT22;3827;49.928;8.548;2024-03-23T07:13:28;7.20;99.90
7572;DHT22;3827;49.928;8.548;2024-03-23T07:15:54;7.30;99.90
7572;DHT22;3827;49.928;8.548;2024-03-23T07:18:21;7.30;99.90
7572;DHT22;3827;49.928;8.548;2024-03-23T07:20:57;7.10;99.90
7572;DHT22;3827;49.928;8.548;2024-03-23T07:23:23;7.10;99.90
7572;DHT22;3827;49.928;8.548;2024-03-23T07:26:02;7.00;99.90
7572;DHT22;3827;49.928;8.548;2024-03-23T07:28:27;6.90;99.90
7572;DHT22;3827;49.928;8.548;2024-03-23T07:31:13;6.90;99.90
7572;DHT22;3827;49.928;8.548;2024-03-23T07:33:48;6.90;99.90
7572;DHT22;3827;49.928;8.548;2024-03-23T07:36:14;6.80;99.90
7572;DHT22;3827;49.928;8.548;2024-03-23T07:38:43;6.80;99.90
7572;DHT22;3827;49.928;8.548;2024-03-23T07:41:15;6.80;99.90
7572;DHT22;3827;49.928;8.548;2024-03-23T07:43:44;6.90;99.90
7572;DHT22;3827;49.928;8.548;2024-03-23T07:46:10;6.90;99.90
7572;DHT22;3827;49.928;8.548;2024-03-23T07:48:37;6.90;99.90
7572;DHT22;3827;49.928;8.548;2024-03-23T07:51:05;7.00;99.90
7572;DHT22;3827;49.928;8.548;2024-03-23T07:53:31;7.10;99.90
7572;DHT22;3827;49.928;8.548;2024-03-23T07:55:59;7.10;99.90
7572;DHT22;3827;49.928;8.548;2024-03-23T07:58:26;7.00;99.90
7572;DHT22;3827;49.928;8.548;2024-03-23T08:00:53;7.00;99.90
7572;DHT22;3827;49.928;8.548;2024-03-23T08:03:19;7.00;99.90
7572;DHT22;3827;49.928;8.548;2024-03-23T08:05:44;7.00;99.90
7572;DHT22;3827;49.928;8.548;2024-03-23T08:08:10;7.00;99.90
7572;DHT22;3827;49.928;8.548;2024-03-23T08:10:36;7.10;99.90
7572;DHT22;3827;49.928;8.548;2024-03-23T08:13:02;7.10;99.90
7572;DHT22;3827;49.928;8.548;2024-03-23T08:15:30;7.10;99.90
7572;DHT22;3827;49.928;8.548;2024-03-23T08:17:59;7.20;99.90
7572;DHT22;3827;49.928;8.548;2024-03-23T08:20:25;7.20;99.90
7572;DHT22;3827;49.928;8.548;2024-03-23T08:22:50;7.40;99.90
7572;DHT22;3827;49.928;8.548;2024-03-23T08:25:16;7.50;99.90
7572;DHT22;3827;49.928;8.548;2024-03-23T08:27:44;7.70;99.90
7572;DHT22;3827;49.928;8.548;2024-03-23T08:30:09;7.90;99.90
7572;DHT22;3827;49.928;8.548;2024-03-23T08:32:36;7.50;99.90
7572;DHT22;3827;49.928;8.548;2024-03-23T08:35:02;7.60;99.90
7572;DHT22;3827;49.928;8.548;2024-03-23T08:37:27;7.50;99.90
7572;DHT22;3827;49.928;8.548;2024-03-23T08:39:53;7.80;99.90
7572;DHT22;3827;49.928;8.548;2024-03-23T08:42:19;7.90;99.90
7572;DHT22;3827;49.928;8.548;2024-03-23T08:44:44;8.10;99.90
7572;DHT22;3827;49.928;8.548;2024-03-23T08:47:13;8.20;99.90
7572;DHT22;3827;49.928;8.548;2024-03-23T08:49:38;8.10;99.90
7572;DHT22;3827;49.928;8.548;2024-03-23T08:52:04;8.40;99.90
7572;DHT22;3827;49.928;8.548;2024-03-23T08:54:30;8.40;99.90
7572;DHT22;3827;49.928;8.548;2024-03-23T08:56:56;8.40;99.90
7572;DHT22;3827;49.928;8.548;2024-03-23T08:59:25;8.70;99.90
7572;DHT22;3827;49.928;8.548;2024-03-23T09:01:51;8.90;99.90
7572;DHT22;3827;49.928;8.548;2024-03-23T09:04:16;8.80;99.90
7572;DHT22;3827;49.928;8.548;2024-03-23T09:06:45;8.40;99.90
7572;DHT22;3827;49.928;8.548;2024-03-23T09:09:10;8.70;99.90
7572;DHT22;3827;49.928;8.548;2024-03-23T09:11:36;8.90;99.90
7572;DHT22;3827;49.928;8.548;2024-03-23T09:14:03;9.10;99.90
7572;DHT22;3827;49.928;8.548;2024-03-23T09:16:32;9.30;99.90
7572;DHT22;3827;49.928;8.548;2024-03-23T09:18:57;9.10;99.90
7572;DHT22;3827;49.928;8.548;2024-03-23T09:21:23;8.80;99.90
7572;DHT22;3827;49.928;8.548;2024-03-23T09:23:48;8.80;99.90
7572;DHT22;3827;49.928;8.548;2024-03-23T09:26:14;8.80;99.90
7572;DHT22;3827;49.928;8.548;2024-03-23T09:28:40;9.20;99.90
7572;DHT22;3827;49.928;8.548;2024-03-23T09:31:06;9.50;99.90
7572;DHT22;3827;49.928;8.548;2024-03-23T09:33:35;9.20;99.90
7572;DHT22;3827;49.928;8.548;2024-03-23T09:36:05;9.40;99.90
7572;DHT22;3827;49.928;8.548;2024-03-23T09:38:31;9.60;99.90
7572;DHT22;3827;49.928;8.548;2024-03-23T09:40:57;9.60;99.90
7572;DHT22;3827;49.928;8.548;2024-03-23T09:43:23;10.00;99.90
7572;DHT22;3827;49.928;8.548;2024-03-23T09:45:49;10.00;99.90
7572;DHT22;3827;49.928;8.548;2024-03-23T09:48:15;9.80;99.90
7572;DHT22;3827;49.928;8.548;2024-03-23T09:50:42;9.30;99.90
7572;DHT22;3827;49.928;8.548;2024-03-23T09:53:09;9.50;99.90
7572;DHT22;3827;49.928;8.548;2024-03-23T09:55:37;9.60;99.90
7572;DHT22;3827;49.928;8.548;2024-03-23T09:58:03;9.70;99.90
7572;DHT22;3827;49.928;8.548;2024-03-23T10:00:33;9.50;99.90
7572;DHT22;3827;49.928;8.548;2024-03-23T10:02:59;9.90;99.90
7572;DHT22;3827;49.928;8.548;2024-03-23T10:05:30;9.60;99.90
7572;DHT22;3827;49.928;8.548;2024-03-23T10:10:40;9.50;99.90
7572;DHT22;3827;49.928;8.548;2024-03-23T10:13:05;9.50;99.90
7572;DHT22;3827;49.928;8.548;2024-03-23T10:15:34;9.70;99.90
7572;DHT22;3827;49.928;8.548;2024-03-23T10:18:20;10.10;99.90
7572;DHT22;3827;49.928;8.548;2024-03-23T10:20:51;10.00;99.90
7572;DHT22;3827;49.928;8.548;2024-03-23T10:23:17;10.00;99.90
7572;DHT22;3827;49.928;8.548;2024-03-23T10:25:46;9.90;99.90
7572;DHT22;3827;49.928;8.548;2024-03-23T10:28:11;9.40;99.90
7572;DHT22;3827;49.928;8.548;2024-03-23T10:30:37;9.30;99.90
7572;DHT22;3827;49.928;8.548;2024-03-23T10:33:10;9.20;99.90
7572;DHT22;3827;49.928;8.548;2024-03-23T10:35:37;9.30;99.90
7572;DHT22;3827;49.928;8.548;2024-03-23T10:38:05;9.30;99.90
7572;DHT22;3827;49.928;8.548;2024-03-23T10:40:31;9.40;99.90
7572;DHT22;3827;49.928;8.548;2024-03-23T10:42:59;9.50;99.90
7572;DHT22;3827;49.928;8.548;2024-03-23T10:45:25;9.30;99.90
7572;DHT22;3827;49.928;8.548;2024-03-23T10:47:51;8.80;99.90
7572;DHT22;3827;49.928;8.548;2024-03-23T10:50:17;7.90;99.90
7572;DHT22;3827;49.928;8.548;2024-03-23T10:52:47;7.40;99.90
7572;DHT22;3827;49.928;8.548;2024-03-23T10:55:15;7.10;99.90
7572;DHT22;3827;49.928;8.548;2024-03-23T10:58:00;6.90;99.90
7572;DHT22;3827;49.928;8.548;2024-03-23T11:00:26;6.70;99.90
7572;DHT22;3827;49.928;8.548;2024-03-23T11:02:52;7.40;99.90
7572;DHT22;3827;49.928;8.548;2024-03-23T11:07:50;5.30;99.90
7572;DHT22;3827;49.928;8.548;2024-03-23T11:10:27;4.90;99.90
7572;DHT22;3827;49.928;8.548;2024-03-23T11:12:54;4.60;99.90
7572;DHT22;3827;49.928;8.548;2024-03-23T11:15:20;4.30;99.90
7572;DHT22;3827;49.928;8.548;2024-03-23T11:18:05;4.40;99.90
7572;DHT22;3827;49.928;8.548;2024-03-23T11:20:36;4.70;99.90
7572;DHT22;3827;49.928;8.548;2024-03-23T11:23:02;4.70;99.90
7572;DHT22;3827;49.928;8.548;2024-03-23T11:25:28;5.10;99.90
7572;DHT22;3827;49.928;8.548;2024-03-23T11:27:56;4.90;99.90
7572;DHT22;3827;49.928;8.548;2024-03-23T11:30:26;5.10;99.90
7572;DHT22;3827;49.928;8.548;2024-03-23T11:32:53;5.10;99.90
7572;DHT22;3827;49.928;8.548;2024-03-23T11:40:47;5.60;99.90
7572;DHT22;3827;49.928;8.548;2024-03-23T11:43:18;5.80;99.90
7572;DHT22;3827;49.928;8.548;2024-03-23T11:48:13;6.20;99.90
7572;DHT22;3827;49.928;8.548;2024-03-23T11:50:44;6.50;99.90
7572;DHT22;3827;49.928;8.548;2024-03-23T11:53:16;6.90;99.90
7572;DHT22;3827;49.928;8.548;2024-03-23T11:58:16;8.10;99.90
7572;DHT22;3827;49.928;8.548;2024-03-23T12:00:43;8.50;99.90
7572;DHT22;3827;49.928;8.548;2024-03-23T12:03:14;8.90;99.90
7572;DHT22;3827;49.928;8.548;2024-03-23T12:05:41;9.40;99.90
7572;DHT22;3827;49.928;8.548;2024-03-23T12:10:49;10.40;99.90
7572;DHT22;3827;49.928;8.548;2024-03-23T12:13:19;10.80;99.90
7572;DHT22;3827;49.928;8.548;2024-03-23T12:15:45;11.00;99.90
7572;DHT22;3827;49.928;8.548;2024-03-23T12:18:11;11.10;99.90
7572;DHT22;3827;49.928;8.548;2024-03-23T12:20:38;11.00;99.90
7572;DHT22;3827;49.928;8.548;2024-03-23T12:23:08;11.40;99.90
7572;DHT22;3827;49.928;8.548;2024-03-23T12:25:35;11.50;99.90
7572;DHT22;3827;49.928;8.548;2024-03-23T12:28:01;10.80;99.90
7572;DHT22;3827;49.928;8.548;2024-03-23T12:30:27;10.80;99.90
7572;DHT22;3827;49.928;8.548;2024-03-23T12:32:53;11.40;99.90
7572;DHT22;3827;49.928;8.548;2024-03-23T12:35:19;11.70;99.90
7572;DHT22;3827;49.928;8.548;2024-03-23T12:37:44;11.50;99.90
7572;DHT22;3827;49.928;8.548;2024-03-23T12:40:10;11.30;99.90
7572;DHT22;3827;49.928;8.548;2024-03-23T12:42:36;11.40;99.90
7572;DHT22;3827;49.928;8.548;2024-03-23T12:45:01;11.50;99.90
7572;DHT22;3827;49.928;8.548;2024-03-23T12:47:27;11.60;99.90
7572;DHT22;3827;49.928;8.548;2024-03-23T12:49:53;11.80;99.90
7572;DHT22;3827;49.928;8.548;2024-03-23T12:52:18;11.20;99.90
7572;DHT22;3827;49.928;8.548;2024-03-23T12:54:47;11.60;99.90
7572;DHT22;3827;49.928;8.548;2024-03-23T12:57:12;11.20;99.90
7572;DHT22;3827;49.928;8.548;2024-03-23T12:59:38;11.00;99.90
7572;DHT22;3827;49.928;8.548;2024-03-23T13:02:03;10.80;99.90
7572;DHT22;3827;49.928;8.548;2024-03-23T13:04:29;10.50;99.90
7572;DHT22;3827;49.928;8.548;2024-03-23T13:06:54;10.20;99.90
7572;DHT22;3827;49.928;8.548;2024-03-23T13:09:20;9.60;99.90
7572;DHT22;3827;49.928;8.548;2024-03-23T13:11:45;9.20;99.90
7572;DHT22;3827;49.928;8.548;2024-03-23T13:14:11;8.40;99.90
7572;DHT22;3827;49.928;8.548;2024-03-23T13:16:37;7.00;99.90
7572;DHT22;3827;49.928;8.548;2024-03-23T13:19:02;5.20;99.90
7572;DHT22;3827;49.928;8.548;2024-03-23T13:21:28;4.20;99.90
7572;DHT22;3827;49.928;8.548;2024-03-23T13:23:54;4.10;99.90
7572;DHT22;3827;49.928;8.548;2024-03-23T13:26:20;4.30;99.90
7572;DHT22;3827;49.928;8.548;2024-03-23T13:28:46;4.50;99.90
7572;DHT22;3827;49.928;8.548;2024-03-23T13:31:11;5.00;99.90
7572;DHT22;3827;49.928;8.548;2024-03-23T13:33:37;5.70;99.90
7572;DHT22;3827;49.928;8.548;2024-03-23T13:36:03;6.20;99.90
7572;DHT22;3827;49.928;8.548;2024-03-23T13:38:29;6.70;99.90
7572;DHT22;3827;49.928;8.548;2024-03-23T13:43:20;7.50;99.90
7572;DHT22;3827;49.928;8.548;2024-03-23T13:45:47;8.20;99.90
7572;DHT22;3827;49.928;8.548;2024-03-23T13:48:14;8.20;99.90
7572;DHT22;3827;49.928;8.548;2024-03-23T13:50:40;7.70;99.90
7572;DHT22;3827;49.928;8.548;2024-03-23T13:53:05;7.90;99.90
7572;DHT22;3827;49.928;8.548;2024-03-23T13:55:31;8.00;99.90
7572;DHT22;3827;49.928;8.548;2024-03-23T13:57:57;8.10;99.90
7572;DHT22;3827;49.928;8.548;2024-03-23T14:00:23;8.50;99.90
7572;DHT22;3827;49.928;8.548;2024-03-23T14:02:48;8.90;99.90
7572;DHT22;3827;49.928;8.548;2024-03-23T14:05:14;9.50;99.90
7572;DHT22;3827;49.928;8.548;2024-03-23T14:07:40;10.10;99.90
7572;DHT22;3827;49.928;8.548;2024-03-23T14:10:06;10.50;99.90
7572;DHT22;3827;49.928;8.548;2024-03-23T14:12:32;10.20;99.90
7572;DHT22;3827;49.928;8.548;2024-03-23T14:14:58;10.10;99.90
7572;DHT22;3827;49.928;8.548;2024-03-23T14:17:24;9.80;99.90
7572;DHT22;3827;49.928;8.548;2024-03-23T14:19:51;9.90;99.90
7572;DHT22;3827;49.928;8.548;2024-03-23T14:22:17;10.30;99.90
7572;DHT22;3827;49.928;8.548;2024-03-23T14:24:45;10.10;99.90
7572;DHT22;3827;49.928;8.548;2024-03-23T14:27:10;9.90;99.90
7572;DHT22;3827;49.928;8.548;2024-03-23T14:29:36;9.90;99.90
7572;DHT22;3827;49.928;8.548;2024-03-23T14:32:02;9.60;99.90
7572;DHT22;3827;49.928;8.548;2024-03-23T14:34:28;9.20;99.90
7572;DHT22;3827;49.928;8.548;2024-03-23T14:36:56;9.20;99.90
7572;DHT22;3827;49.928;8.548;2024-03-23T14:39:25;9.10;99.90
7572;DHT22;3827;49.928;8.548;2024-03-23T14:41:51;9.00;99.90
7572;DHT22;3827;49.928;8.548;2024-03-23T14:44:16;9.30;99.90
7572;DHT22;3827;49.928;8.548;2024-03-23T14:46:42;10.30;99.90
7572;DHT22;3827;49.928;8.548;2024-03-23T14:49:08;11.00;99.90
7572;DHT22;3827;49.928;8.548;2024-03-23T14:51:34;11.20;99.90
7572;DHT22;3827;49.928;8.548;2024-03-23T14:53:59;10.90;99.90
7572;DHT22;3827;49.928;8.548;2024-03-23T14:56:25;9.70;99.90
7572;DHT22;3827;49.928;8.548;2024-03-23T14:58:54;9.70;99.90
7572;DHT22;3827;49.928;8.548;2024-03-23T15:01:21;9.60;99.90
7572;DHT22;3827;49.928;8.548;2024-03-23T15:03:46;9.20;99.90
7572;DHT22;3827;49.928;8.548;2024-03-23T15:06:13;9.10;99.90
7572;DHT22;3827;49.928;8.548;2024-03-23T15:08:38;9.50;99.90
7572;DHT22;3827;49.928;8.548;2024-03-23T15:11:05;9.20;99.90
7572;DHT22;3827;49.928;8.548;2024-03-23T15:13:33;9.40;99.90
7572;DHT22;3827;49.928;8.548;2024-03-23T15:15:59;9.70;99.90
7572;DHT22;3827;49.928;8.548;2024-03-23T15:18:24;10.10;99.90
7572;DHT22;3827;49.928;8.548;2024-03-23T15:20:57;9.80;99.90
7572;DHT22;3827;49.928;8.548;2024-03-23T15:23:27;9.60;99.90
7572;DHT22;3827;49.928;8.548;2024-03-23T15:25:56;9.30;99.90
7572;DHT22;3827;49.928;8.548;2024-03-23T15:28:26;9.10;99.90
7572;DHT22;3827;49.928;8.548;2024-03-23T15:31:10;8.90;99.90
7572;DHT22;3827;49.928;8.548;2024-03-23T15:33:36;8.70;99.90
7572;DHT22;3827;49.928;8.548;2024-03-23T15:36:03;8.70;99.90
7572;DHT22;3827;49.928;8.548;2024-03-23T15:38:28;8.50;99.90
7572;DHT22;3827;49.928;8.548;2024-03-23T15:40:57;8.50;99.90
7572;DHT22;3827;49.928;8.548;2024-03-23T15:43:23;7.80;99.90
7572;DHT22;3827;49.928;8.548;2024-03-23T15:45:58;6.70;99.90
7572;DHT22;3827;49.928;8.548;2024-03-23T15:48:27;6.40;99.90
7572;DHT22;3827;49.928;8.548;2024-03-23T15:53:23;6.60;99.90
7572;DHT22;3827;49.928;8.548;2024-03-23T15:55:56;6.80;99.90
7572;DHT22;3827;49.928;8.548;2024-03-23T15:58:22;6.90;99.90
7572;DHT22;3827;49.928;8.548;2024-03-23T16:00:58;6.90;99.90
7572;DHT22;3827;49.928;8.548;2024-03-23T16:03:24;7.30;99.90
7572;DHT22;3827;49.928;8.548;2024-03-23T16:05:56;7.50;99.90
7572;DHT22;3827;49.928;8.548;2024-03-23T16:08:22;7.50;99.90
7572;DHT22;3827;49.928;8.548;2024-03-23T16:10:48;7.50;99.90
7572;DHT22;3827;49.928;8.548;2024-03-23T16:13:14;7.50;99.90
7572;DHT22;3827;49.928;8.548;2024-03-23T16:15:40;7.40;99.90
7572;DHT22;3827;49.928;8.548;2024-03-23T16:18:06;7.30;99.90
7572;DHT22;3827;49.928;8.548;2024-03-23T16:20:31;7.20;99.90
7572;DHT22;3827;49.928;8.548;2024-03-23T16:22:59;7.10;99.90
7572;DHT22;3827;49.928;8.548;2024-03-23T16:25:25;7.10;99.90
7572;DHT22;3827;49.928;8.548;2024-03-23T16:27:50;7.00;99.90
7572;DHT22;3827;49.928;8.548;2024-03-23T16:30:16;7.10;99.90
7572;DHT22;3827;49.928;8.548;2024-03-23T16:32:42;7.20;99.90
7572;DHT22;3827;49.928;8.548;2024-03-23T16:35:07;7.20;99.90
7572;DHT22;3827;49.928;8.548;2024-03-23T16:37:36;7.40;99.90
7572;DHT22;3827;49.928;8.548;2024-03-23T16:40:01;7.50;99.90
7572;DHT22;3827;49.928;8.548;2024-03-23T16:42:27;7.60;99.90
7572;DHT22;3827;49.928;8.548;2024-03-23T16:44:54;7.60;99.90
7572;DHT22;3827;49.928;8.548;2024-03-23T16:47:19;7.60;99.90
7572;DHT22;3827;49.928;8.548;2024-03-23T16:49:45;7.50;99.90
7572;DHT22;3827;49.928;8.548;2024-03-23T16:52:10;7.50;99.90
7572;DHT22;3827;49.928;8.548;2024-03-23T16:54:36;7.50;99.90
7572;DHT22;3827;49.928;8.548;2024-03-23T16:57:01;7.40;99.90
7572;DHT22;3827;49.928;8.548;2024-03-23T16:59:28;7.30;99.90
7572;DHT22;3827;49.928;8.548;2024-03-23T17:01:53;7.20;99.90
7572;DHT22;3827;49.928;8.548;2024-03-23T17:04:21;7.20;99.90
7572;DHT22;3827;49.928;8.548;2024-03-23T17:06:48;7.20;99.90
7572;DHT22;3827;49.928;8.548;2024-03-23T17:09:14;7.20;99.90
7572;DHT22;3827;49.928;8.548;2024-03-23T17:11:39;7.20;99.90
7572;DHT22;3827;49.928;8.548;2024-03-23T17:14:08;7.20;99.90
7572;DHT22;3827;49.928;8.548;2024-03-23T17:16:33;7.20;99.90
7572;DHT22;3827;49.928;8.548;2024-03-23T17:19:00;7.20;99.90
7572;DHT22;3827;49.928;8.548;2024-03-23T17:21:26;7.20;99.90
7572;DHT22;3827;49.928;8.548;2024-03-23T17:23:53;7.20;99.90
7572;DHT22;3827;49.928;8.548;2024-03-23T17:26:22;7.20;99.90
7572;DHT22;3827;49.928;8.548;2024-03-23T17:28:47;7.20;99.90